Hauptseite
METAR-TAF:

METAR-TAF

Flughäfen :

Militärflugplatz Saint-Dizier-Robinson

Saint-Dizier, Frankreich

Breite: 48-38N, Länge: 004-54E, Höhe: 139 m

Beobachtung

Neuester Wetterbericht von vor 44 Minuten, um 10:30 UTC
Wind 8 kt aus Nordost, Böen bis zu 20 kt, variierte zwischen Nord/Nordwest und Ost
Temperatur 29°C
Luftfeuchtigkeit 33%
Luftdruck 1017 hPa
Sichtweite 10 km oder mehr
keine Wolken unter 1500 m und keine Kumulonimbus oder Gewitterwolken

METAR: LFSI 191030Z AUTO 04008G20KT 340V090 CAVOK 29/11 Q1017

Zeit: 13:14 (11:14 UTC)

Prognose

Neuester Wetterbericht von vor 3 Stunden und 14 Minuten, um 08:00 UTC
Gültige Prognose vom 19 um 09 UTC bis 20 um 09 UTC
Wind 7 kt aus Ost
Sichtweite 10 km oder mehr
keine Wolken unter 1500 m und keine Kumulonimbus oder Gewitterwolken

TAF: LFSI 190800Z 1909/2009 08007KT CAVOK

Wetterbeobachtungen und Prognosen von mehr als 4000 Flughäfen (METAR und TAF Bericht).

Die verfügbaren Stationen werden durch gelbe und rote Markierungen auf der Karte dargestellt.

Führen Sie die Maus auf sie, um den Namen der Station zu sehen.

Darauf klicken, um die Beobachtung von Wetterbeobachtungen und Prognosen zu sehen.

Um die Karte zu ändern : klicken Sie auf den grünen Tasten mit einem schwarzen Kreuz Zum Vergrößern, auf den grünen Button mit einem Gedankenstrich zu verkleinern, oder auf die grünen Pfeile für benachbarte Karten.


METAR-TAF: